sensor_id;sensor_type;location;lat;lon;timestamp;pressure;altitude;pressure_sealevel;temperature;humidity
23253;BME280;11795;47.054;15.408;2022-12-17T00:01:03;96890;;;2.0;97.2
23253;BME280;11795;47.054;15.408;2022-12-17T00:03:04;96890;;;1.9;97.3
23253;BME280;11795;47.054;15.408;2022-12-17T00:05:03;96890;;;2.0;96.8
23253;BME280;11795;47.054;15.408;2022-12-17T00:07:03;96890;;;2.0;97.0
23253;BME280;11795;47.054;15.408;2022-12-17T00:09:03;96890;;;2.2;96.5
23253;BME280;11795;47.054;15.408;2022-12-17T00:11:03;96900;;;2.0;96.6
23253;BME280;11795;47.054;15.408;2022-12-17T00:13:03;96900;;;1.9;97.2
23253;BME280;11795;47.054;15.408;2022-12-17T00:15:04;96910;;;2.0;96.7
23253;BME280;11795;47.054;15.408;2022-12-17T00:17:03;96910;;;1.9;96.9
23253;BME280;11795;47.054;15.408;2022-12-17T00:19:03;96910;;;2.0;97.0
23253;BME280;11795;47.054;15.408;2022-12-17T00:21:04;96910;;;1.9;97.0
23253;BME280;11795;47.054;15.408;2022-12-17T00:23:04;96910;;;1.8;97.4
23253;BME280;11795;47.054;15.408;2022-12-17T00:25:04;96910;;;2.0;97.0
23253;BME280;11795;47.054;15.408;2022-12-17T00:27:03;96920;;;1.9;97.4
23253;BME280;11795;47.054;15.408;2022-12-17T00:29:03;96920;;;2.1;97.3
23253;BME280;11795;47.054;15.408;2022-12-17T00:31:03;96920;;;2.0;97.1
23253;BME280;11795;47.054;15.408;2022-12-17T00:33:04;96920;;;1.9;97.5
23253;BME280;11795;47.054;15.408;2022-12-17T00:35:04;96920;;;2.0;97.2
23253;BME280;11795;47.054;15.408;2022-12-17T00:37:04;96930;;;1.9;97.6
23253;BME280;11795;47.054;15.408;2022-12-17T00:39:03;96930;;;2.1;97.6
23253;BME280;11795;47.054;15.408;2022-12-17T00:41:04;96920;;;2.0;97.5
23253;BME280;11795;47.054;15.408;2022-12-17T00:43:05;96920;;;1.9;97.8
23253;BME280;11795;47.054;15.408;2022-12-17T00:45:04;96920;;;2.0;97.3
23253;BME280;11795;47.054;15.408;2022-12-17T00:47:03;96920;;;1.9;97.7
23253;BME280;11795;47.054;15.408;2022-12-17T00:49:03;96930;;;2.1;97.7
23253;BME280;11795;47.054;15.408;2022-12-17T00:51:04;96930;;;2.0;97.6
23253;BME280;11795;47.054;15.408;2022-12-17T00:53:03;96930;;;2.0;97.9
23253;BME280;11795;47.054;15.408;2022-12-17T00:55:04;96920;;;2.1;97.5
23253;BME280;11795;47.054;15.408;2022-12-17T00:57:03;96930;;;2.0;97.9
23253;BME280;11795;47.054;15.408;2022-12-17T00:59:03;96930;;;2.2;97.8
23253;BME280;11795;47.054;15.408;2022-12-17T01:01:03;96930;;;2.0;97.7
23253;BME280;11795;47.054;15.408;2022-12-17T01:03:05;96930;;;2.0;98.0
23253;BME280;11795;47.054;15.408;2022-12-17T01:05:04;96930;;;2.1;97.5
23253;BME280;11795;47.054;15.408;2022-12-17T01:07:03;96930;;;2.0;97.8
23253;BME280;11795;47.054;15.408;2022-12-17T01:09:03;96930;;;2.2;97.8
23253;BME280;11795;47.054;15.408;2022-12-17T01:11:06;96930;;;2.1;97.7
23253;BME280;11795;47.054;15.408;2022-12-17T01:13:03;96930;;;2.0;97.9
23253;BME280;11795;47.054;15.408;2022-12-17T01:15:05;96930;;;2.1;97.5
23253;BME280;11795;47.054;15.408;2022-12-17T01:17:03;96930;;;2.0;97.8
23253;BME280;11795;47.054;15.408;2022-12-17T01:19:03;96930;;;2.2;97.7
23253;BME280;11795;47.054;15.408;2022-12-17T01:21:04;96930;;;2.1;97.6
23253;BME280;11795;47.054;15.408;2022-12-17T01:23:06;96940;;;2.0;97.9
23253;BME280;11795;47.054;15.408;2022-12-17T01:25:04;96940;;;2.2;97.4
23253;BME280;11795;47.054;15.408;2022-12-17T01:27:03;96940;;;2.1;97.7
23253;BME280;11795;47.054;15.408;2022-12-17T01:29:03;96940;;;2.3;97.5
23253;BME280;11795;47.054;15.408;2022-12-17T01:31:06;96950;;;2.1;97.4
23253;BME280;11795;47.054;15.408;2022-12-17T01:33:06;96950;;;2.1;97.6
23253;BME280;11795;47.054;15.408;2022-12-17T01:35:04;96960;;;2.2;97.1
23253;BME280;11795;47.054;15.408;2022-12-17T01:37:03;96970;;;2.0;97.4
23253;BME280;11795;47.054;15.408;2022-12-17T01:39:03;96970;;;2.2;97.3
23253;BME280;11795;47.054;15.408;2022-12-17T01:41:05;96970;;;2.1;97.2
23253;BME280;11795;47.054;15.408;2022-12-17T01:43:07;96970;;;2.0;97.5
23253;BME280;11795;47.054;15.408;2022-12-17T01:45:05;96980;;;2.1;97.1
23253;BME280;11795;47.054;15.408;2022-12-17T01:47:03;96990;;;2.0;97.4
23253;BME280;11795;47.054;15.408;2022-12-17T01:49:04;96990;;;2.2;97.3
23253;BME280;11795;47.054;15.408;2022-12-17T01:51:04;96990;;;2.1;97.2
23253;BME280;11795;47.054;15.408;2022-12-17T01:53:05;96990;;;2.1;97.4
23253;BME280;11795;47.054;15.408;2022-12-17T01:55:05;96990;;;2.2;96.9
23253;BME280;11795;47.054;15.408;2022-12-17T01:57:05;96990;;;2.1;97.1
23253;BME280;11795;47.054;15.408;2022-12-17T01:59:05;96990;;;2.2;97.1
23253;BME280;11795;47.054;15.408;2022-12-17T02:01:04;97000;;;2.1;97.1
23253;BME280;11795;47.054;15.408;2022-12-17T02:03:04;97000;;;2.0;97.4
23253;BME280;11795;47.054;15.408;2022-12-17T02:05:03;97010;;;2.1;97.0
23253;BME280;11795;47.054;15.408;2022-12-17T02:07:10;97020;;;2.1;97.2
23253;BME280;11795;47.054;15.408;2022-12-17T02:09:09;97030;;;2.3;96.9
23253;BME280;11795;47.054;15.408;2022-12-17T02:11:10;97030;;;2.1;96.5
23253;BME280;11795;47.054;15.408;2022-12-17T02:13:09;97030;;;2.0;96.9
23253;BME280;11795;47.054;15.408;2022-12-17T02:15:07;97030;;;2.1;96.6
23253;BME280;11795;47.054;15.408;2022-12-17T02:17:06;97040;;;2.0;97.1
23253;BME280;11795;47.054;15.408;2022-12-17T02:19:11;97040;;;2.2;97.1
23253;BME280;11795;47.054;15.408;2022-12-17T02:21:04;97040;;;2.0;97.0
23253;BME280;11795;47.054;15.408;2022-12-17T02:23:14;97050;;;2.0;97.3
23253;BME280;11795;47.054;15.408;2022-12-17T02:25:10;97060;;;2.1;96.9
23253;BME280;11795;47.054;15.408;2022-12-17T02:27:07;97060;;;2.0;97.1
23253;BME280;11795;47.054;15.408;2022-12-17T02:29:05;97060;;;2.2;97.2
23253;BME280;11795;47.054;15.408;2022-12-17T02:31:04;97060;;;2.0;97.1
23253;BME280;11795;47.054;15.408;2022-12-17T02:33:04;97060;;;1.9;97.3
23253;BME280;11795;47.054;15.408;2022-12-17T02:35:09;97070;;;2.1;97.0
23253;BME280;11795;47.054;15.408;2022-12-17T02:37:03;97070;;;2.0;97.3
23253;BME280;11795;47.054;15.408;2022-12-17T02:39:03;97070;;;2.2;97.3
23253;BME280;11795;47.054;15.408;2022-12-17T02:41:04;97070;;;2.1;97.1
23253;BME280;11795;47.054;15.408;2022-12-17T02:43:04;97070;;;2.0;96.8
23253;BME280;11795;47.054;15.408;2022-12-17T02:45:05;97080;;;2.1;96.4
23253;BME280;11795;47.054;15.408;2022-12-17T02:47:07;97080;;;2.0;96.7
23253;BME280;11795;47.054;15.408;2022-12-17T02:49:03;97080;;;2.1;96.8
23253;BME280;11795;47.054;15.408;2022-12-17T02:51:04;97090;;;2.0;96.8
23253;BME280;11795;47.054;15.408;2022-12-17T02:53:04;97080;;;2.0;97.0
23253;BME280;11795;47.054;15.408;2022-12-17T02:55:05;97090;;;2.1;96.5
23253;BME280;11795;47.054;15.408;2022-12-17T02:57:04;97100;;;2.0;96.9
23253;BME280;11795;47.054;15.408;2022-12-17T02:59:03;97110;;;2.2;96.8
23253;BME280;11795;47.054;15.408;2022-12-17T03:01:04;97110;;;2.0;96.7
23253;BME280;11795;47.054;15.408;2022-12-17T03:03:03;97120;;;2.0;96.6
23253;BME280;11795;47.054;15.408;2022-12-17T03:05:03;97120;;;2.1;96.5
23253;BME280;11795;47.054;15.408;2022-12-17T03:07:04;97120;;;2.0;96.8
23253;BME280;11795;47.054;15.408;2022-12-17T03:09:03;97120;;;2.2;96.7
23253;BME280;11795;47.054;15.408;2022-12-17T03:11:04;97120;;;2.0;96.7
23253;BME280;11795;47.054;15.408;2022-12-17T03:13:03;97130;;;1.9;97.0
23253;BME280;11795;47.054;15.408;2022-12-17T03:15:04;97130;;;2.1;96.4
23253;BME280;11795;47.054;15.408;2022-12-17T03:17:03;97140;;;2.0;96.6
23253;BME280;11795;47.054;15.408;2022-12-17T03:19:04;97140;;;2.1;96.7
23253;BME280;11795;47.054;15.408;2022-12-17T03:21:04;97140;;;2.0;96.6
23253;BME280;11795;47.054;15.408;2022-12-17T03:23:06;97150;;;2.0;96.9
23253;BME280;11795;47.054;15.408;2022-12-17T03:25:04;97140;;;2.0;96.6
23253;BME280;11795;47.054;15.408;2022-12-17T03:27:03;97150;;;2.0;97.0
23253;BME280;11795;47.054;15.408;2022-12-17T03:29:04;97150;;;2.2;97.0
23253;BME280;11795;47.054;15.408;2022-12-17T03:31:04;97160;;;2.1;96.9
23253;BME280;11795;47.054;15.408;2022-12-17T03:33:07;97160;;;2.0;97.2
23253;BME280;11795;47.054;15.408;2022-12-17T03:35:04;97170;;;2.2;96.8
23253;BME280;11795;47.054;15.408;2022-12-17T03:37:04;97170;;;2.1;97.0
23253;BME280;11795;47.054;15.408;2022-12-17T03:39:04;97170;;;2.3;97.0
23253;BME280;11795;47.054;15.408;2022-12-17T03:41:05;97170;;;2.1;96.8
23253;BME280;11795;47.054;15.408;2022-12-17T03:43:05;97170;;;2.0;97.2
23253;BME280;11795;47.054;15.408;2022-12-17T03:45:04;97170;;;2.2;96.7
23253;BME280;11795;47.054;15.408;2022-12-17T03:47:04;97170;;;2.1;97.0
23253;BME280;11795;47.054;15.408;2022-12-17T03:49:04;97170;;;2.3;97.1
23253;BME280;11795;47.054;15.408;2022-12-17T03:51:04;97170;;;2.1;96.9
23253;BME280;11795;47.054;15.408;2022-12-17T03:53:04;97170;;;2.1;97.2
23253;BME280;11795;47.054;15.408;2022-12-17T03:55:04;97180;;;2.2;96.8
23253;BME280;11795;47.054;15.408;2022-12-17T03:57:04;97180;;;2.1;97.1
23253;BME280;11795;47.054;15.408;2022-12-17T03:59:06;97180;;;2.3;97.2
23253;BME280;11795;47.054;15.408;2022-12-17T04:01:04;97180;;;2.1;97.0
23253;BME280;11795;47.054;15.408;2022-12-17T04:03:04;97190;;;2.1;97.3
23253;BME280;11795;47.054;15.408;2022-12-17T04:05:04;97190;;;2.2;96.8
23253;BME280;11795;47.054;15.408;2022-12-17T04:07:04;97180;;;2.1;97.0
23253;BME280;11795;47.054;15.408;2022-12-17T04:09:04;97190;;;2.3;97.1
23253;BME280;11795;47.054;15.408;2022-12-17T04:11:04;97190;;;2.1;96.8
23253;BME280;11795;47.054;15.408;2022-12-17T04:13:04;97190;;;2.1;97.2
23253;BME280;11795;47.054;15.408;2022-12-17T04:15:05;97200;;;2.2;96.7
23253;BME280;11795;47.054;15.408;2022-12-17T04:17:04;97200;;;2.1;96.9
23253;BME280;11795;47.054;15.408;2022-12-17T04:19:04;97200;;;2.3;97.0
23253;BME280;11795;47.054;15.408;2022-12-17T04:21:04;97200;;;2.1;96.9
23253;BME280;11795;47.054;15.408;2022-12-17T04:23:04;97200;;;2.1;97.3
23253;BME280;11795;47.054;15.408;2022-12-17T04:25:05;97210;;;2.3;96.8
23253;BME280;11795;47.054;15.408;2022-12-17T04:27:04;97220;;;2.2;97.1
23253;BME280;11795;47.054;15.408;2022-12-17T04:29:04;97220;;;2.3;97.1
23253;BME280;11795;47.054;15.408;2022-12-17T04:31:04;97220;;;2.2;96.9
23253;BME280;11795;47.054;15.408;2022-12-17T04:33:04;97230;;;2.1;97.2
23253;BME280;11795;47.054;15.408;2022-12-17T04:35:04;97230;;;2.3;96.7
23253;BME280;11795;47.054;15.408;2022-12-17T04:37:04;97230;;;2.2;97.0
23253;BME280;11795;47.054;15.408;2022-12-17T04:39:04;97240;;;2.3;97.1
23253;BME280;11795;47.054;15.408;2022-12-17T04:41:04;97240;;;2.2;96.9
23253;BME280;11795;47.054;15.408;2022-12-17T04:43:05;97240;;;2.2;97.2
23253;BME280;11795;47.054;15.408;2022-12-17T04:45:04;97240;;;2.3;96.7
23253;BME280;11795;47.054;15.408;2022-12-17T04:47:04;97240;;;2.2;97.0
23253;BME280;11795;47.054;15.408;2022-12-17T04:49:04;97240;;;2.4;97.1
23253;BME280;11795;47.054;15.408;2022-12-17T04:51:04;97240;;;2.3;96.9
23253;BME280;11795;47.054;15.408;2022-12-17T04:53:05;97240;;;2.2;97.2
23253;BME280;11795;47.054;15.408;2022-12-17T04:55:04;97240;;;2.3;96.6
23253;BME280;11795;47.054;15.408;2022-12-17T04:57:04;97240;;;2.2;96.9
23253;BME280;11795;47.054;15.408;2022-12-17T04:59:04;97240;;;2.4;97.0
23253;BME280;11795;47.054;15.408;2022-12-17T05:01:04;97250;;;2.3;96.7
23253;BME280;11795;47.054;15.408;2022-12-17T05:03:04;97250;;;2.2;96.9
23253;BME280;11795;47.054;15.408;2022-12-17T05:05:04;97250;;;2.4;96.4
23253;BME280;11795;47.054;15.408;2022-12-17T05:07:04;97270;;;2.2;96.6
23253;BME280;11795;47.054;15.408;2022-12-17T05:09:04;97270;;;2.4;96.7
23253;BME280;11795;47.054;15.408;2022-12-17T05:11:04;97270;;;2.3;96.2
23253;BME280;11795;47.054;15.408;2022-12-17T05:13:04;97270;;;2.2;96.3
23253;BME280;11795;47.054;15.408;2022-12-17T05:15:04;97270;;;2.3;95.9
23253;BME280;11795;47.054;15.408;2022-12-17T05:17:05;97260;;;2.2;96.2
23253;BME280;11795;47.054;15.408;2022-12-17T05:19:04;97270;;;2.4;96.4
23253;BME280;11795;47.054;15.408;2022-12-17T05:21:04;97280;;;2.3;96.1
23253;BME280;11795;47.054;15.408;2022-12-17T05:23:05;97280;;;2.2;96.4
23253;BME280;11795;47.054;15.408;2022-12-17T05:25:06;97290;;;2.4;96.0
23253;BME280;11795;47.054;15.408;2022-12-17T05:27:04;97290;;;2.2;96.2
23253;BME280;11795;47.054;15.408;2022-12-17T05:29:04;97290;;;2.4;96.4
23253;BME280;11795;47.054;15.408;2022-12-17T05:31:04;97290;;;2.2;96.1
23253;BME280;11795;47.054;15.408;2022-12-17T05:33:04;97300;;;2.2;96.4
23253;BME280;11795;47.054;15.408;2022-12-17T05:35:04;97310;;;2.3;96.0
23253;BME280;11795;47.054;15.408;2022-12-17T05:37:04;97310;;;2.2;96.3
23253;BME280;11795;47.054;15.408;2022-12-17T05:39:04;97310;;;2.4;96.4
23253;BME280;11795;47.054;15.408;2022-12-17T05:41:04;97310;;;2.3;96.0
23253;BME280;11795;47.054;15.408;2022-12-17T05:43:05;97320;;;2.2;96.3
23253;BME280;11795;47.054;15.408;2022-12-17T05:45:04;97330;;;2.4;95.9
23253;BME280;11795;47.054;15.408;2022-12-17T05:47:04;97330;;;2.2;96.1
23253;BME280;11795;47.054;15.408;2022-12-17T05:49:04;97340;;;2.4;96.3
23253;BME280;11795;47.054;15.408;2022-12-17T05:51:04;97340;;;2.3;96.1
23253;BME280;11795;47.054;15.408;2022-12-17T05:53:04;97340;;;2.2;96.4
23253;BME280;11795;47.054;15.408;2022-12-17T05:55:04;97340;;;2.3;96.0
23253;BME280;11795;47.054;15.408;2022-12-17T05:57:04;97340;;;2.2;96.1
23253;BME280;11795;47.054;15.408;2022-12-17T05:59:04;97350;;;2.3;96.3
23253;BME280;11795;47.054;15.408;2022-12-17T06:01:05;97350;;;2.2;96.0
23253;BME280;11795;47.054;15.408;2022-12-17T06:03:04;97350;;;2.2;96.2
23253;BME280;11795;47.054;15.408;2022-12-17T06:05:04;97350;;;2.3;95.9
23253;BME280;11795;47.054;15.408;2022-12-17T06:07:04;97350;;;2.1;96.2
23253;BME280;11795;47.054;15.408;2022-12-17T06:09:04;97350;;;2.3;96.3
23253;BME280;11795;47.054;15.408;2022-12-17T06:11:04;97350;;;2.2;96.0
23253;BME280;11795;47.054;15.408;2022-12-17T06:13:04;97360;;;2.1;96.3
23253;BME280;11795;47.054;15.408;2022-12-17T06:15:04;97360;;;2.3;95.9
23253;BME280;11795;47.054;15.408;2022-12-17T06:17:04;97370;;;2.1;96.1
23253;BME280;11795;47.054;15.408;2022-12-17T06:19:04;97380;;;2.2;96.4
23253;BME280;11795;47.054;15.408;2022-12-17T06:21:04;97380;;;2.2;96.1
23253;BME280;11795;47.054;15.408;2022-12-17T06:23:06;97380;;;2.1;96.5
23253;BME280;11795;47.054;15.408;2022-12-17T06:25:04;97390;;;2.3;96.0
23253;BME280;11795;47.054;15.408;2022-12-17T06:27:04;97390;;;2.2;96.1
23253;BME280;11795;47.054;15.408;2022-12-17T06:29:04;97380;;;2.3;96.0
23253;BME280;11795;47.054;15.408;2022-12-17T06:31:04;97380;;;2.2;95.8
23253;BME280;11795;47.054;15.408;2022-12-17T06:33:06;97390;;;2.1;96.1
23253;BME280;11795;47.054;15.408;2022-12-17T06:35:04;97390;;;2.3;95.8
23253;BME280;11795;47.054;15.408;2022-12-17T06:37:04;97390;;;2.2;95.9
23253;BME280;11795;47.054;15.408;2022-12-17T06:39:04;97400;;;2.3;96.1
23253;BME280;11795;47.054;15.408;2022-12-17T06:41:04;97400;;;2.2;95.8
23253;BME280;11795;47.054;15.408;2022-12-17T06:43:04;97410;;;2.1;96.1
23253;BME280;11795;47.054;15.408;2022-12-17T06:45:04;97410;;;2.2;95.7
23253;BME280;11795;47.054;15.408;2022-12-17T06:47:04;97420;;;2.1;96.0
23253;BME280;11795;47.054;15.408;2022-12-17T06:49:04;97430;;;2.2;96.2
23253;BME280;11795;47.054;15.408;2022-12-17T06:51:04;97440;;;2.2;96.0
23253;BME280;11795;47.054;15.408;2022-12-17T06:53:05;97430;;;2.1;96.3
23253;BME280;11795;47.054;15.408;2022-12-17T06:55:04;97450;;;2.2;96.0
23253;BME280;11795;47.054;15.408;2022-12-17T06:57:04;97450;;;2.1;96.2
23253;BME280;11795;47.054;15.408;2022-12-17T06:59:04;97450;;;2.2;96.4
23253;BME280;11795;47.054;15.408;2022-12-17T07:01:04;97450;;;2.2;96.1
23253;BME280;11795;47.054;15.408;2022-12-17T07:03:04;97450;;;2.2;96.2
23253;BME280;11795;47.054;15.408;2022-12-17T07:05:04;97450;;;2.3;95.7
23253;BME280;11795;47.054;15.408;2022-12-17T07:07:04;97450;;;2.2;96.1
23253;BME280;11795;47.054;15.408;2022-12-17T07:09:04;97460;;;2.3;96.3
23253;BME280;11795;47.054;15.408;2022-12-17T07:11:04;97460;;;2.2;95.9
23253;BME280;11795;47.054;15.408;2022-12-17T07:13:04;97470;;;2.1;96.4
23253;BME280;11795;47.054;15.408;2022-12-17T07:15:05;97470;;;2.3;96.1
23253;BME280;11795;47.054;15.408;2022-12-17T07:17:04;97480;;;2.2;96.3
23253;BME280;11795;47.054;15.408;2022-12-17T07:19:04;97490;;;2.3;96.5
23253;BME280;11795;47.054;15.408;2022-12-17T07:21:04;97480;;;2.3;96.1
23253;BME280;11795;47.054;15.408;2022-12-17T07:23:04;97490;;;2.2;96.3
23253;BME280;11795;47.054;15.408;2022-12-17T07:25:04;97480;;;2.3;96.0
23253;BME280;11795;47.054;15.408;2022-12-17T07:27:04;97480;;;2.3;96.2
23253;BME280;11795;47.054;15.408;2022-12-17T07:29:04;97490;;;2.4;96.3
23253;BME280;11795;47.054;15.408;2022-12-17T07:31:04;97490;;;2.4;95.9
23253;BME280;11795;47.054;15.408;2022-12-17T07:33:06;97500;;;2.3;96.1
23253;BME280;11795;47.054;15.408;2022-12-17T07:35:05;97500;;;2.5;95.7
23253;BME280;11795;47.054;15.408;2022-12-17T07:37:04;97500;;;2.4;96.0
23253;BME280;11795;47.054;15.408;2022-12-17T07:39:04;97490;;;2.5;96.0
23253;BME280;11795;47.054;15.408;2022-12-17T07:41:04;97500;;;2.5;95.7
23253;BME280;11795;47.054;15.408;2022-12-17T07:43:08;97510;;;2.4;95.9
23253;BME280;11795;47.054;15.408;2022-12-17T07:45:05;97520;;;2.6;95.5
23253;BME280;11795;47.054;15.408;2022-12-17T07:47:04;97530;;;2.5;95.4
23253;BME280;11795;47.054;15.408;2022-12-17T07:49:04;97540;;;2.6;95.5
23253;BME280;11795;47.054;15.408;2022-12-17T07:51:04;97540;;;2.6;95.2
23253;BME280;11795;47.054;15.408;2022-12-17T07:53:04;97530;;;2.5;95.5
23253;BME280;11795;47.054;15.408;2022-12-17T07:55:05;97540;;;2.7;95.2
23253;BME280;11795;47.054;15.408;2022-12-17T07:57:04;97540;;;2.6;95.4
23253;BME280;11795;47.054;15.408;2022-12-17T07:59:04;97530;;;2.7;95.4
23253;BME280;11795;47.054;15.408;2022-12-17T08:01:04;97540;;;2.6;95.0
23253;BME280;11795;47.054;15.408;2022-12-17T08:03:04;97550;;;2.6;95.3
23253;BME280;11795;47.054;15.408;2022-12-17T08:05:04;97560;;;2.7;94.8
23253;BME280;11795;47.054;15.408;2022-12-17T08:07:04;97560;;;2.6;94.9
23253;BME280;11795;47.054;15.408;2022-12-17T08:09:04;97560;;;2.7;95.1
23253;BME280;11795;47.054;15.408;2022-12-17T08:11:04;97570;;;2.7;94.8
23253;BME280;11795;47.054;15.408;2022-12-17T08:13:05;97570;;;2.6;95.0
23253;BME280;11795;47.054;15.408;2022-12-17T08:15:04;97570;;;2.7;94.5
23253;BME280;11795;47.054;15.408;2022-12-17T08:17:04;97570;;;2.6;94.8
23253;BME280;11795;47.054;15.408;2022-12-17T08:19:04;97570;;;2.7;95.0
23253;BME280;11795;47.054;15.408;2022-12-17T08:21:04;97580;;;2.7;94.7
23253;BME280;11795;47.054;15.408;2022-12-17T08:23:04;97570;;;2.6;95.1
23253;BME280;11795;47.054;15.408;2022-12-17T08:25:05;97570;;;2.8;94.7
23253;BME280;11795;47.054;15.408;2022-12-17T08:27:04;97590;;;2.7;94.8
23253;BME280;11795;47.054;15.408;2022-12-17T08:29:04;97600;;;2.7;95.2
23253;BME280;11795;47.054;15.408;2022-12-17T08:31:04;97600;;;2.8;94.5
23253;BME280;11795;47.054;15.408;2022-12-17T08:33:05;97610;;;2.7;94.4
23253;BME280;11795;47.054;15.408;2022-12-17T08:35:04;97620;;;2.8;93.8
23253;BME280;11795;47.054;15.408;2022-12-17T08:37:04;97620;;;2.7;93.7
23253;BME280;11795;47.054;15.408;2022-12-17T08:39:04;97620;;;2.7;94.1
23253;BME280;11795;47.054;15.408;2022-12-17T08:41:04;97630;;;2.6;94.1
23253;BME280;11795;47.054;15.408;2022-12-17T08:43:04;97640;;;2.5;94.4
23253;BME280;11795;47.054;15.408;2022-12-17T08:45:05;97640;;;2.6;94.4
23253;BME280;11795;47.054;15.408;2022-12-17T08:47:04;97640;;;2.6;94.5
23253;BME280;11795;47.054;15.408;2022-12-17T08:49:04;97650;;;2.6;94.8
23253;BME280;11795;47.054;15.408;2022-12-17T08:51:04;97650;;;2.6;94.4
23253;BME280;11795;47.054;15.408;2022-12-17T08:53:04;97660;;;2.6;94.4
23253;BME280;11795;47.054;15.408;2022-12-17T08:55:05;97670;;;2.7;93.6
23253;BME280;11795;47.054;15.408;2022-12-17T08:57:04;97670;;;2.5;94.1
23253;BME280;11795;47.054;15.408;2022-12-17T08:59:04;97680;;;2.6;94.7
23253;BME280;11795;47.054;15.408;2022-12-17T09:01:04;97680;;;2.7;93.4
23253;BME280;11795;47.054;15.408;2022-12-17T09:03:04;97680;;;2.6;93.5
23253;BME280;11795;47.054;15.408;2022-12-17T09:05:05;97680;;;2.5;93.8
23253;BME280;11795;47.054;15.408;2022-12-17T09:07:04;97680;;;2.4;94.5
23253;BME280;11795;47.054;15.408;2022-12-17T09:09:04;97690;;;2.5;94.7
23253;BME280;11795;47.054;15.408;2022-12-17T09:11:04;97700;;;2.5;94.7
23253;BME280;11795;47.054;15.408;2022-12-17T09:13:04;97710;;;2.4;95.0
23253;BME280;11795;47.054;15.408;2022-12-17T09:15:04;97710;;;2.5;94.7
23253;BME280;11795;47.054;15.408;2022-12-17T09:17:04;97700;;;2.4;95.2
23253;BME280;11795;47.054;15.408;2022-12-17T09:19:05;97700;;;2.5;95.5
23253;BME280;11795;47.054;15.408;2022-12-17T09:21:05;97710;;;2.5;95.1
23253;BME280;11795;47.054;15.408;2022-12-17T09:23:04;97700;;;2.4;95.3
23253;BME280;11795;47.054;15.408;2022-12-17T09:25:04;97700;;;2.5;95.1
23253;BME280;11795;47.054;15.408;2022-12-17T09:27:04;97710;;;2.4;95.5
23253;BME280;11795;47.054;15.408;2022-12-17T09:29:04;97710;;;2.5;96.0
23253;BME280;11795;47.054;15.408;2022-12-17T09:31:04;97720;;;2.6;95.6
23253;BME280;11795;47.054;15.408;2022-12-17T09:33:04;97730;;;2.5;95.7
23253;BME280;11795;47.054;15.408;2022-12-17T09:35:04;97720;;;2.6;95.5
23253;BME280;11795;47.054;15.408;2022-12-17T09:37:04;97720;;;2.5;95.7
23253;BME280;11795;47.054;15.408;2022-12-17T09:39:04;97720;;;2.6;95.6
23253;BME280;11795;47.054;15.408;2022-12-17T09:41:14;97720;;;2.6;95.4
23253;BME280;11795;47.054;15.408;2022-12-17T09:43:13;97710;;;2.5;95.6
23253;BME280;11795;47.054;15.408;2022-12-17T09:45:10;97720;;;2.6;95.4
23253;BME280;11795;47.054;15.408;2022-12-17T09:47:12;97720;;;2.5;95.6
23253;BME280;11795;47.054;15.408;2022-12-17T09:49:12;97720;;;2.5;96.0
23253;BME280;11795;47.054;15.408;2022-12-17T09:51:04;97740;;;2.6;95.8
23253;BME280;11795;47.054;15.408;2022-12-17T09:53:12;97730;;;2.5;96.1
23253;BME280;11795;47.054;15.408;2022-12-17T09:55:14;97730;;;2.7;95.5
23253;BME280;11795;47.054;15.408;2022-12-17T09:57:05;97730;;;2.6;95.8
23253;BME280;11795;47.054;15.408;2022-12-17T09:59:04;97720;;;2.6;95.9
23253;BME280;11795;47.054;15.408;2022-12-17T10:01:04;97730;;;2.6;95.6
23253;BME280;11795;47.054;15.408;2022-12-17T10:03:09;97740;;;2.6;96.0
23253;BME280;11795;47.054;15.408;2022-12-17T10:05:11;97740;;;2.8;95.7
23253;BME280;11795;47.054;15.408;2022-12-17T10:07:10;97740;;;2.8;95.4
23253;BME280;11795;47.054;15.408;2022-12-17T10:09:10;97750;;;2.8;95.0
23253;BME280;11795;47.054;15.408;2022-12-17T10:11:11;97750;;;2.8;94.6
23253;BME280;11795;47.054;15.408;2022-12-17T10:13:10;97760;;;2.8;95.1
23253;BME280;11795;47.054;15.408;2022-12-17T10:15:11;97760;;;2.9;94.4
23253;BME280;11795;47.054;15.408;2022-12-17T10:17:08;97760;;;2.8;93.9
23253;BME280;11795;47.054;15.408;2022-12-17T10:19:05;97760;;;2.8;94.1
23253;BME280;11795;47.054;15.408;2022-12-17T10:21:05;97770;;;2.8;93.9
23253;BME280;11795;47.054;15.408;2022-12-17T10:23:05;97770;;;2.7;94.2
23253;BME280;11795;47.054;15.408;2022-12-17T10:25:06;97780;;;2.8;94.1
23253;BME280;11795;47.054;15.408;2022-12-17T10:27:08;97780;;;2.8;94.3
23253;BME280;11795;47.054;15.408;2022-12-17T10:29:09;97780;;;2.8;94.7
23253;BME280;11795;47.054;15.408;2022-12-17T10:31:07;97780;;;2.8;94.2
23253;BME280;11795;47.054;15.408;2022-12-17T10:33:05;97780;;;2.7;94.3
23253;BME280;11795;47.054;15.408;2022-12-17T10:35:08;97780;;;2.9;94.0
23253;BME280;11795;47.054;15.408;2022-12-17T10:37:13;97780;;;2.8;94.3
23253;BME280;11795;47.054;15.408;2022-12-17T10:39:05;97780;;;2.8;94.6
23253;BME280;11795;47.054;15.408;2022-12-17T10:41:18;97780;;;3.0;93.4
23253;BME280;11795;47.054;15.408;2022-12-17T10:43:22;97780;;;3.0;93.4
23253;BME280;11795;47.054;15.408;2022-12-17T10:45:17;97780;;;3.1;93.1
23253;BME280;11795;47.054;15.408;2022-12-17T10:47:10;97780;;;3.0;93.3
23253;BME280;11795;47.054;15.408;2022-12-17T10:49:09;97780;;;3.1;93.4
23253;BME280;11795;47.054;15.408;2022-12-17T10:51:16;97780;;;3.2;93.0
23253;BME280;11795;47.054;15.408;2022-12-17T10:53:15;97780;;;3.3;93.2
23253;BME280;11795;47.054;15.408;2022-12-17T10:55:17;97780;;;3.6;92.9
23253;BME280;11795;47.054;15.408;2022-12-17T10:57:05;97790;;;3.5;91.7
23253;BME280;11795;47.054;15.408;2022-12-17T10:59:10;97790;;;3.6;91.4
23253;BME280;11795;47.054;15.408;2022-12-17T11:01:06;97780;;;3.7;91.1
23253;BME280;11795;47.054;15.408;2022-12-17T11:03:04;97790;;;3.6;91.4
23253;BME280;11795;47.054;15.408;2022-12-17T11:05:12;97780;;;3.9;91.1
23253;BME280;11795;47.054;15.408;2022-12-17T11:07:05;97790;;;3.8;90.5
23253;BME280;11795;47.054;15.408;2022-12-17T11:09:05;97790;;;3.8;91.1
23253;BME280;11795;47.054;15.408;2022-12-17T11:11:06;97790;;;3.9;90.4
23253;BME280;11795;47.054;15.408;2022-12-17T11:13:08;97790;;;4.0;88.4
23253;BME280;11795;47.054;15.408;2022-12-17T11:15:11;97790;;;4.0;87.0
23253;BME280;11795;47.054;15.408;2022-12-17T11:17:08;97800;;;3.9;87.6
23253;BME280;11795;47.054;15.408;2022-12-17T11:19:18;97800;;;3.9;87.5
23253;BME280;11795;47.054;15.408;2022-12-17T11:21:09;97800;;;4.0;87.1